createdAt,value
2022-10-21T00:04:10.961Z,101031.00
2022-10-21T00:06:37.514Z,101028.50
2022-10-21T00:09:07.097Z,101035.00
2022-10-21T00:11:33.636Z,101030.41
2022-10-21T00:14:00.112Z,101015.13
2022-10-21T00:16:26.665Z,101020.56
2022-10-21T00:18:53.180Z,101016.81
2022-10-21T00:21:22.090Z,101010.50
2022-10-21T00:23:49.957Z,101011.34
2022-10-21T00:26:18.088Z,101003.38
2022-10-21T00:28:44.856Z,100988.16
2022-10-21T00:31:13.566Z,100983.75
2022-10-21T00:33:40.551Z,100999.22
2022-10-21T00:36:07.929Z,100992.97
2022-10-21T00:38:35.927Z,100989.41
2022-10-21T00:41:03.179Z,100973.91
2022-10-21T00:43:29.778Z,100980.19
2022-10-21T00:46:02.252Z,100978.31
2022-10-21T00:48:41.540Z,100972.63
2022-10-21T00:51:12.927Z,100972.88
2022-10-21T00:53:42.521Z,100971.59
2022-10-21T00:56:16.420Z,100957.75
2022-10-21T00:58:44.620Z,100953.13
2022-10-21T01:01:11.247Z,100967.56
2022-10-21T01:03:37.795Z,100952.06
2022-10-21T01:06:08.379Z,100950.19
2022-10-21T01:08:36.092Z,100945.56
2022-10-21T01:11:03.754Z,100941.19
2022-10-21T01:14:11.722Z,100939.31
2022-10-21T01:16:50.108Z,100928.41
2022-10-21T01:19:26.233Z,100924.63
2022-10-21T01:22:31.927Z,100922.50
2022-10-21T01:25:22.336Z,100913.69
2022-10-21T01:28:14.080Z,100906.56
2022-10-21T01:30:58.735Z,100906.09
2022-10-21T01:33:25.183Z,100893.53
2022-10-21T01:36:09.576Z,100891.44
2022-10-21T01:39:03.078Z,100881.97
2022-10-21T01:41:35.717Z,100887.19
2022-10-21T01:44:07.911Z,100901.41
2022-10-21T01:46:42.521Z,100900.13
2022-10-21T01:49:36.220Z,100892.53
2022-10-21T01:52:04.350Z,100898.84
2022-10-21T01:54:37.772Z,100890.91
2022-10-21T01:57:06.949Z,100890.91
2022-10-21T01:59:34.842Z,100885.47
2022-10-21T02:02:04.091Z,100875.63
2022-10-21T02:04:34.113Z,100878.34
2022-10-21T02:07:00.682Z,100860.34
2022-10-21T02:09:27.209Z,100872.06
2022-10-21T02:11:58.395Z,100861.41
2022-10-21T02:14:33.122Z,100855.94
2022-10-21T02:17:00.812Z,100862.44
2022-10-21T02:19:28.142Z,100851.56
2022-10-21T02:21:58.504Z,100844.47
2022-10-21T02:24:42.726Z,100844.47
2022-10-21T02:27:09.352Z,100845.78
2022-10-21T02:29:39.236Z,100844.69
2022-10-21T02:32:27.486Z,100836.75
2022-10-21T02:35:22.610Z,100843.25
2022-10-21T02:38:10.149Z,100846.22
2022-10-21T02:40:44.246Z,100836.16
2022-10-21T02:43:15.815Z,100834.03
2022-10-21T02:45:42.660Z,100829.88
2022-10-21T02:48:09.142Z,100833.66
2022-10-21T02:50:35.617Z,100828.22
2022-10-21T02:53:02.179Z,100831.53
2022-10-21T02:55:28.693Z,100835.31
2022-10-21T02:57:55.207Z,100838.03
2022-10-21T03:00:21.773Z,100841.63
2022-10-21T03:02:48.434Z,100840.53
2022-10-21T03:05:15.015Z,100830.25
2022-10-21T03:07:41.757Z,100833.22
2022-10-21T03:10:08.848Z,100837.38
2022-10-21T03:12:35.480Z,100836.06
2022-10-21T03:15:03.032Z,100837.75
2022-10-21T03:17:29.664Z,100833.13
2022-10-21T03:19:56.183Z,100834.78
2022-10-21T03:22:22.706Z,100831.00
2022-10-21T03:24:49.182Z,100823.41
2022-10-21T03:27:15.789Z,100817.97
2022-10-21T03:29:42.347Z,100814.19
2022-10-21T03:32:08.873Z,100811.47
2022-10-21T03:34:35.377Z,100803.06
2022-10-21T03:37:01.901Z,100799.06
2022-10-21T03:39:28.388Z,100793.59
2022-10-21T03:41:54.916Z,100791.13
2022-10-21T03:44:21.635Z,100793.03
2022-10-21T03:46:48.480Z,100793.25
2022-10-21T03:49:20.189Z,100778.81
2022-10-21T03:51:48.399Z,100782.00
2022-10-21T03:54:15.405Z,100780.34
2022-10-21T03:56:41.928Z,100780.78
2022-10-21T03:59:08.434Z,100782.91
2022-10-21T04:01:35.168Z,100781.03
2022-10-21T04:04:01.732Z,100777.47
2022-10-21T04:06:31.414Z,100781.88
2022-10-21T04:08:58.311Z,100788.38
2022-10-21T04:11:24.941Z,100792.38
2022-10-21T04:13:51.509Z,100775.66
2022-10-21T04:16:20.944Z,100783.84
2022-10-21T04:18:47.904Z,100778.41
2022-10-21T04:21:15.052Z,100772.34
2022-10-21T04:23:42.018Z,100766.06
2022-10-21T04:26:09.261Z,100763.59
2022-10-21T04:28:36.343Z,100771.38
2022-10-21T04:31:03.388Z,100774.34
2022-10-21T04:33:29.996Z,100771.00
2022-10-21T04:35:58.842Z,100766.63
2022-10-21T04:38:26.311Z,100775.88
2022-10-21T04:41:01.065Z,100767.69
2022-10-21T04:43:28.124Z,100762.47
2022-10-21T04:45:54.879Z,100762.69
2022-10-21T04:48:22.008Z,100757.50
2022-10-21T04:50:49.936Z,100764.22
2022-10-21T04:53:16.898Z,100760.69
2022-10-21T04:55:43.458Z,100759.84
2022-10-21T04:58:10.153Z,100758.16
2022-10-21T05:00:36.746Z,100755.69
2022-10-21T05:03:03.891Z,100754.03
2022-10-21T05:05:30.392Z,100757.81
2022-10-21T05:07:56.894Z,100757.81
2022-10-21T05:10:23.921Z,100749.28
2022-10-21T05:12:50.510Z,100738.41
2022-10-21T05:15:17.139Z,100730.69
2022-10-21T05:17:43.660Z,100727.13
2022-10-21T05:20:10.602Z,100726.91
2022-10-21T05:22:37.334Z,100721.94
2022-10-21T05:25:04.457Z,100723.00
2022-10-21T05:27:30.980Z,100716.94
2022-10-21T05:29:58.409Z,100723.47
2022-10-21T05:32:25.419Z,100720.94
2022-10-21T05:34:51.996Z,100719.50
2022-10-21T05:37:18.673Z,100717.03
2022-10-21T05:39:45.162Z,100724.38
2022-10-21T05:42:11.747Z,100724.97
2022-10-21T05:44:38.256Z,100729.34
2022-10-21T05:47:04.806Z,100728.53
2022-10-21T05:49:31.281Z,100728.28
2022-10-21T05:51:57.925Z,100733.97
2022-10-21T05:54:24.420Z,100725.81
2022-10-21T05:56:51.074Z,100726.63
2022-10-21T05:59:17.664Z,100728.28
2022-10-21T06:01:44.233Z,100722.84
2022-10-21T06:04:10.753Z,100728.28
2022-10-21T06:06:37.290Z,100727.00
2022-10-21T06:09:04.242Z,100728.66
2022-10-21T06:11:31.325Z,100726.53
2022-10-21T06:13:57.873Z,100729.03
2022-10-21T06:16:24.421Z,100722.50
2022-10-21T06:18:51.022Z,100718.75
2022-10-21T06:21:17.789Z,100709.53
2022-10-21T06:23:44.325Z,100710.13
2022-10-21T06:26:13.239Z,100713.44
2022-10-21T06:28:42.159Z,100705.88
2022-10-21T06:31:13.746Z,100702.13
2022-10-21T06:33:40.404Z,100697.25
2022-10-21T06:36:07.349Z,100703.31
2022-10-21T06:38:34.288Z,100702.25
2022-10-21T06:41:02.449Z,100695.50
2022-10-21T06:43:29.385Z,100709.69
2022-10-21T06:46:04.451Z,100713.84
2022-10-21T06:48:31.085Z,100709.84
2022-10-21T06:51:01.378Z,100705.25
2022-10-21T06:53:28.666Z,100701.81
2022-10-21T06:56:08.260Z,100713.31
2022-10-21T06:58:36.790Z,100713.06
2022-10-21T07:01:27.553Z,100728.09
2022-10-21T07:04:04.872Z,100733.91
2022-10-21T07:09:27.964Z,100721.25
2022-10-21T07:11:55.321Z,100730.84
2022-10-21T07:14:24.278Z,100734.19
2022-10-21T07:16:54.412Z,100741.28
2022-10-21T07:19:23.368Z,100744.34
2022-10-21T07:21:50.117Z,100747.44
2022-10-21T07:24:24.188Z,100755.19
2022-10-21T07:26:51.468Z,100738.34
2022-10-21T07:29:23.744Z,100748.78
2022-10-21T07:31:52.453Z,100722.75
2022-10-21T07:34:19.265Z,100726.06
2022-10-21T07:36:52.832Z,100747.97
2022-10-21T07:39:22.814Z,100739.34
2022-10-21T07:41:51.935Z,100749.75
2022-10-21T07:44:19.837Z,100745.97
2022-10-21T07:46:47.562Z,100743.63
2022-10-21T07:49:15.305Z,100746.91
2022-10-21T07:51:42.487Z,100741.84
2022-10-21T07:54:09.179Z,100740.53
2022-10-21T07:56:41.527Z,100742.78
2022-10-21T07:59:12.871Z,100737.94
2022-10-21T08:01:44.500Z,100739.09
2022-10-21T08:04:13.145Z,100723.13
2022-10-21T08:06:40.637Z,100728.69
2022-10-21T08:09:07.764Z,100739.72
2022-10-21T08:11:34.822Z,100740.88
2022-10-21T08:14:03.194Z,100743.72
2022-10-21T08:16:29.734Z,100735.66
2022-10-21T08:18:56.630Z,100751.31
2022-10-21T08:21:23.186Z,100742.41
2022-10-21T08:23:49.719Z,100746.09
2022-10-21T08:26:16.312Z,100753.53
2022-10-21T08:28:43.183Z,100760.75
2022-10-21T08:31:18.454Z,100758.16
2022-10-21T08:33:45.480Z,100764.59
2022-10-21T08:36:18.352Z,100767.19
2022-10-21T08:38:45.505Z,100757.44
2022-10-21T08:41:30.267Z,100755.63
2022-10-21T08:44:02.629Z,100757.66
2022-10-21T08:46:38.156Z,100748.50
2022-10-21T08:49:27.325Z,100741.47
2022-10-21T08:52:08.022Z,100732.56
2022-10-21T08:54:55.402Z,100730.75
2022-10-21T08:57:22.376Z,100727.88
2022-10-21T08:59:49.548Z,100730.47
2022-10-21T09:02:35.495Z,100734.94
2022-10-21T09:05:17.720Z,100718.16
2022-10-21T09:08:23.107Z,100715.63
2022-10-21T09:10:55.584Z,100717.94
2022-10-21T09:13:33.791Z,100711.81
2022-10-21T09:16:19.383Z,100710.31
2022-10-21T09:18:54.998Z,100705.53
2022-10-21T09:22:34.958Z,100702.38
2022-10-21T09:25:21.395Z,100701.69
2022-10-21T09:27:55.996Z,100704.25
2022-10-21T09:30:23.508Z,100697.53
2022-10-21T09:32:55.569Z,100698.75
2022-10-21T09:35:41.795Z,100697.84
2022-10-21T09:38:46.548Z,100689.81
2022-10-21T09:43:56.137Z,100701.03
2022-10-21T09:46:22.835Z,100697.34
2022-10-21T09:49:25.889Z,100686.50
2022-10-21T09:51:42.653Z,100692.06
2022-10-21T09:54:17.101Z,100696.56
2022-10-21T09:56:58.430Z,100696.09
2022-10-21T09:59:30.352Z,100707.16
2022-10-21T10:02:07.805Z,100701.47
2022-10-21T10:04:35.161Z,100704.56
2022-10-21T10:07:31.918Z,100697.00
2022-10-21T10:09:58.501Z,100689.13
2022-10-21T10:12:27.049Z,100699.03
2022-10-21T10:14:55.599Z,100698.81
2022-10-21T10:17:37.084Z,100702.16
2022-10-21T10:20:12.479Z,100706.03
2022-10-21T10:22:43.087Z,100704.44
2022-10-21T10:25:18.608Z,100698.75
2022-10-21T10:28:09.402Z,100708.38
2022-10-21T10:30:41.847Z,100698.81
2022-10-21T10:33:14.989Z,100704.34
2022-10-21T10:35:49.124Z,100699.72
2022-10-21T10:38:35.393Z,100709.41
2022-10-21T10:41:07.130Z,100704.25
2022-10-21T10:43:37.000Z,100694.97
2022-10-21T10:46:07.186Z,100696.66
2022-10-21T10:48:40.019Z,100686.00
2022-10-21T10:51:25.913Z,100686.88
2022-10-21T10:54:15.162Z,100686.31
2022-10-21T10:56:48.797Z,100688.22
2022-10-21T10:59:15.240Z,100677.44
2022-10-21T11:02:00.721Z,100682.13
2022-10-21T11:07:39.792Z,100691.13
2022-10-21T11:10:47.085Z,100687.16
2022-10-21T11:13:16.780Z,100684.59
2022-10-21T11:15:58.499Z,100679.28
2022-10-21T11:18:40.557Z,100674.22
2022-10-21T11:21:22.884Z,100676.31
2022-10-21T11:24:13.872Z,100672.13
2022-10-21T11:27:16.803Z,100680.84
2022-10-21T11:30:00.890Z,100675.25
2022-10-21T11:33:05.201Z,100679.84
2022-10-21T11:35:57.750Z,100669.28
2022-10-21T11:38:30.239Z,100670.91
2022-10-21T11:41:31.810Z,100673.66
2022-10-21T11:44:01.029Z,100673.31
2022-10-21T11:46:40.534Z,100675.22
2022-10-21T11:49:18.114Z,100674.72
2022-10-21T11:51:53.383Z,100669.19
2022-10-21T11:54:31.857Z,100665.28
2022-10-21T11:57:19.710Z,100660.88
2022-10-21T12:00:20.206Z,100655.03
2022-10-21T12:03:09.852Z,100649.56
2022-10-21T12:05:46.913Z,100650.97
2022-10-21T12:08:19.006Z,100652.69
2022-10-21T12:10:54.632Z,100652.16
2022-10-21T12:13:33.224Z,100652.75
2022-10-21T12:16:12.654Z,100653.00
2022-10-21T12:18:47.404Z,100658.34
2022-10-21T12:21:17.912Z,100649.78
2022-10-21T12:23:48.010Z,100656.13
2022-10-21T12:26:24.535Z,100647.88
2022-10-21T12:28:58.475Z,100650.38
2022-10-21T12:31:45.284Z,100648.44
2022-10-21T12:34:13.632Z,100646.78
2022-10-21T12:36:44.387Z,100650.13
2022-10-21T12:39:33.689Z,100645.78
2022-10-21T12:42:12.535Z,100654.34
2022-10-21T12:44:40.531Z,100653.50
2022-10-21T12:47:34.675Z,100656.31
2022-10-21T12:50:24.347Z,100663.75
2022-10-21T12:53:16.854Z,100656.09
2022-10-21T12:55:50.545Z,100657.78
2022-10-21T12:58:39.357Z,100654.50
2022-10-21T13:01:27.172Z,100649.00
2022-10-21T13:03:55.957Z,100651.22
2022-10-21T13:06:50.802Z,100647.66
2022-10-21T13:09:39.371Z,100653.19
2022-10-21T13:12:08.604Z,100657.66
2022-10-21T13:14:56.216Z,100657.69
2022-10-21T13:17:22.660Z,100655.75
2022-10-21T13:19:57.347Z,100658.91
2022-10-21T13:22:38.907Z,100656.16
2022-10-21T13:25:26.953Z,100657.25
2022-10-21T13:28:12.150Z,100665.22
2022-10-21T13:30:59.505Z,100667.13
2022-10-21T13:33:30.101Z,100658.84
2022-10-21T13:36:03.871Z,100667.06
2022-10-21T13:38:33.617Z,100668.16
2022-10-21T13:41:07.175Z,100665.97
2022-10-21T13:44:01.016Z,100669.78
2022-10-21T13:46:32.659Z,100671.94
2022-10-21T13:49:00.764Z,100677.72
2022-10-21T13:51:40.965Z,100672.19
2022-10-21T13:54:15.621Z,100669.16
2022-10-21T13:56:43.519Z,100659.78
2022-10-21T13:59:24.926Z,100671.34
2022-10-21T14:01:54.184Z,100680.44
2022-10-21T14:04:26.454Z,100672.72
2022-10-21T14:06:57.986Z,100677.69
2022-10-21T14:09:28.879Z,100679.03
2022-10-21T14:12:01.787Z,100675.97
2022-10-21T14:14:30.013Z,100673.22
2022-10-21T14:17:02.624Z,100671.56
2022-10-21T14:19:36.730Z,100673.53
2022-10-21T14:22:04.425Z,100674.63
2022-10-21T14:24:44.419Z,100676.03
2022-10-21T14:27:20.156Z,100664.47
2022-10-21T14:29:47.701Z,100668.06
2022-10-21T14:32:16.555Z,100670.81
2022-10-21T14:35:00.273Z,100664.47
2022-10-21T14:37:26.875Z,100669.19
2022-10-21T14:39:53.414Z,100667.28
2022-10-21T14:42:25.367Z,100666.44
2022-10-21T14:45:00.253Z,100660.66
2022-10-21T14:47:27.534Z,100667.56
2022-10-21T14:49:59.766Z,100664.00
2022-10-21T14:52:36.342Z,100659.31
2022-10-21T14:55:08.558Z,100661.00
2022-10-21T14:57:40.919Z,100667.91
2022-10-21T15:00:19.683Z,100674.81
2022-10-21T15:02:46.562Z,100662.72
2022-10-21T15:05:48.772Z,100668.81
2022-10-21T15:08:21.651Z,100663.06
2022-10-21T15:10:57.372Z,100665.53
2022-10-21T15:13:25.933Z,100669.41
2022-10-21T15:15:55.702Z,100662.25
2022-10-21T15:18:27.758Z,100652.63
2022-10-21T15:21:01.582Z,100657.59
2022-10-21T15:23:41.467Z,100666.72
2022-10-21T15:26:23.165Z,100664.53
2022-10-21T15:28:50.857Z,100672.53
2022-10-21T15:31:20.116Z,100667.31
2022-10-21T15:33:49.771Z,100662.34
2022-10-21T15:36:18.968Z,100656.88
2022-10-21T15:38:46.991Z,100655.50
2022-10-21T15:41:19.412Z,100656.91
2022-10-21T15:43:57.861Z,100651.41
2022-10-21T15:46:28.772Z,100665.22
2022-10-21T15:48:56.968Z,100650.94
2022-10-21T15:51:23.467Z,100659.22
2022-10-21T15:53:49.946Z,100662.53
2022-10-21T15:56:18.482Z,100657.06
2022-10-21T15:58:45.379Z,100654.31
2022-10-21T16:01:13.679Z,100657.38
2022-10-21T16:03:40.354Z,100650.19
2022-10-21T16:06:14.448Z,100658.19
2022-10-21T16:08:41.252Z,100655.44
2022-10-21T16:11:25.259Z,100662.09
2022-10-21T16:13:56.625Z,100665.94
2022-10-21T16:16:25.065Z,100665.09
2022-10-21T16:18:53.133Z,100659.91
2022-10-21T16:21:21.974Z,100659.09
2022-10-21T16:23:48.662Z,100661.00
2022-10-21T16:26:21.753Z,100668.16
2022-10-21T16:28:49.761Z,100661.00
2022-10-21T16:31:16.684Z,100662.66
2022-10-21T16:33:43.580Z,100659.38
2022-10-21T16:36:24.614Z,100664.59
2022-10-21T16:38:52.532Z,100660.75
2022-10-21T16:41:25.209Z,100658.81
2022-10-21T16:43:51.727Z,100659.63
2022-10-21T16:46:30.049Z,100651.38
2022-10-21T16:48:57.918Z,100653.28
2022-10-21T16:51:28.446Z,100654.94
2022-10-21T16:53:54.969Z,100662.09
2022-10-21T16:56:21.567Z,100659.06
2022-10-21T16:58:48.332Z,100658.72
2022-10-21T17:01:19.020Z,100657.34
2022-10-21T17:03:45.593Z,100657.91
2022-10-21T17:06:17.132Z,100659.53
2022-10-21T17:08:43.694Z,100662.53
2022-10-21T17:11:14.222Z,100666.94
2022-10-21T17:13:42.500Z,100666.38
2022-10-21T17:16:09.378Z,100670.47
2022-10-21T17:18:36.000Z,100669.09
2022-10-21T17:21:02.738Z,100678.69
2022-10-21T17:23:29.315Z,100678.97
2022-10-21T17:25:56.440Z,100679.53
2022-10-21T17:28:23.171Z,100680.03
2022-10-21T17:30:52.666Z,100678.41
2022-10-21T17:33:19.465Z,100674.53
2022-10-21T17:35:45.985Z,100689.91
2022-10-21T17:38:14.958Z,100687.44
2022-10-21T17:40:41.677Z,100694.84
2022-10-21T17:43:08.192Z,100694.28
2022-10-21T17:45:34.753Z,100697.03
2022-10-21T17:48:02.791Z,100695.38
2022-10-21T17:50:29.316Z,100699.22
2022-10-21T17:52:55.983Z,100696.47
2022-10-21T17:55:22.724Z,100696.47
2022-10-21T17:57:49.397Z,100706.94
2022-10-21T18:00:15.922Z,100701.44
2022-10-21T18:02:42.540Z,100699.78
2022-10-21T18:05:10.446Z,100700.59
2022-10-21T18:07:37.761Z,100697.59
2022-10-21T18:10:06.271Z,100698.69
2022-10-21T18:12:33.086Z,100699.78
2022-10-21T18:14:59.897Z,100695.38
2022-10-21T18:17:26.664Z,100696.47
2022-10-21T18:19:53.641Z,100690.97
2022-10-21T18:22:21.327Z,100694.56
2022-10-21T18:24:48.131Z,100683.00
2022-10-21T18:27:14.807Z,100683.31
2022-10-21T18:29:41.512Z,100685.50
2022-10-21T18:32:12.539Z,100687.69
2022-10-21T18:34:42.392Z,100689.59
2022-10-21T18:37:08.954Z,100691.25
2022-10-21T18:39:35.440Z,100693.19
2022-10-21T18:42:01.933Z,100690.44
2022-10-21T18:44:30.399Z,100687.69
2022-10-21T18:46:56.916Z,100689.59
2022-10-21T18:49:23.442Z,100691.53
2022-10-21T18:51:49.930Z,100693.19
2022-10-21T18:54:16.690Z,100703.31
2022-10-21T18:56:44.829Z,100698.66
2022-10-21T18:59:12.454Z,100697.00
2022-10-21T19:01:40.076Z,100705.25
2022-10-21T19:04:06.816Z,100709.06
2022-10-21T19:06:46.773Z,100706.34
2022-10-21T19:09:14.772Z,100707.41
2022-10-21T19:11:42.772Z,100712.09
2022-10-21T19:14:13.071Z,100715.94
2022-10-21T19:16:42.204Z,100714.03
2022-10-21T19:19:09.166Z,100723.34
2022-10-21T19:21:36.352Z,100725.53
2022-10-21T19:24:04.048Z,100723.84
2022-10-21T19:26:32.885Z,100730.19
2022-10-21T19:29:20.165Z,100731.00
2022-10-21T19:34:21.141Z,100739.50
2022-10-21T19:36:48.408Z,100741.16
2022-10-21T19:39:16.033Z,100745.00
2022-10-21T19:41:43.134Z,100745.00
2022-10-21T19:44:09.945Z,100749.69
2022-10-21T19:46:36.905Z,100751.31
2022-10-21T19:49:05.663Z,100742.53
2022-10-21T19:51:32.402Z,100749.69
2022-10-21T19:53:59.038Z,100749.69
2022-10-21T19:56:29.560Z,100757.91
2022-10-21T19:58:59.985Z,100755.16
2022-10-21T20:01:26.969Z,100749.69
2022-10-21T20:03:55.236Z,100764.47
2022-10-21T20:06:24.880Z,100751.84
2022-10-21T20:08:54.799Z,100761.16
2022-10-21T20:11:22.240Z,100761.16
2022-10-21T20:13:50.362Z,100759.50
2022-10-21T20:16:19.642Z,100763.09
2022-10-21T20:18:46.583Z,100766.91
2022-10-21T20:21:13.866Z,100763.38
2022-10-21T20:23:40.623Z,100766.34
2022-10-21T20:26:07.300Z,100757.56
2022-10-21T20:28:34.803Z,100772.66
2022-10-21T20:31:08.950Z,100770.41
2022-10-21T20:33:40.520Z,100778.66
2022-10-21T20:36:10.384Z,100767.94
2022-10-21T20:38:37.044Z,100766.56
2022-10-21T20:41:07.165Z,100763.25
2022-10-21T20:43:38.864Z,100766.50
2022-10-21T20:46:08.308Z,100759.38
2022-10-21T20:48:35.906Z,100757.75
2022-10-21T20:51:05.065Z,100762.91
2022-10-21T20:53:35.277Z,100765.94
2022-10-21T20:56:06.080Z,100765.34
2022-10-21T20:58:37.329Z,100764.78
2022-10-21T21:01:11.531Z,100768.06
2022-10-21T21:03:39.253Z,100772.97
2022-10-21T21:06:06.060Z,100767.22
2022-10-21T21:08:36.899Z,100770.19
2022-10-21T21:11:05.131Z,100765.50
2022-10-21T21:13:32.040Z,100759.97
2022-10-21T21:16:11.156Z,100763.50
2022-10-21T21:18:39.156Z,100765.09
2022-10-21T21:21:08.401Z,100766.72
2022-10-21T21:23:35.632Z,100763.63
2022-10-21T21:26:06.436Z,100756.75
2022-10-21T21:28:35.576Z,100753.44
2022-10-21T21:31:07.197Z,100753.72
2022-10-21T21:33:34.228Z,100752.31
2022-10-21T21:36:01.608Z,100750.66
2022-10-21T21:38:28.467Z,100749.25
2022-10-21T21:40:55.678Z,100753.66
2022-10-21T21:43:22.275Z,100750.38
2022-10-21T21:45:49.089Z,100747.38
2022-10-21T21:50:48.080Z,100756.97
2022-10-21T21:53:17.058Z,100761.38
2022-10-21T21:55:43.793Z,100760.84
2022-10-21T21:58:10.320Z,100763.06
2022-10-21T22:00:37.102Z,100762.81
2022-10-21T22:03:05.069Z,100765.56
2022-10-21T22:05:32.036Z,100769.13
2022-10-21T22:07:59.689Z,100762.81
2022-10-21T22:10:27.206Z,100769.97
2022-10-21T22:12:56.509Z,100770.81
2022-10-21T22:15:43.247Z,100770.53
2022-10-21T22:18:10.628Z,100780.16
2022-10-21T22:20:39.906Z,100778.81
2022-10-21T22:23:06.869Z,100785.97
2022-10-21T22:25:33.386Z,100785.13
2022-10-21T22:27:59.864Z,100787.63
2022-10-21T22:30:26.385Z,100786.78
2022-10-21T22:32:52.869Z,100790.38
2022-10-21T22:35:19.511Z,100783.75
2022-10-21T22:37:46.009Z,100788.16
2022-10-21T22:40:12.827Z,100784.34
2022-10-21T22:42:39.378Z,100793.38
2022-10-21T22:45:06.670Z,100788.75
2022-10-21T22:47:33.168Z,100788.75
2022-10-21T22:49:59.671Z,100790.41
2022-10-21T22:52:26.191Z,100788.75
2022-10-21T22:54:52.742Z,100781.34
2022-10-21T22:57:19.255Z,100784.94
2022-10-21T22:59:49.402Z,100777.78
2022-10-21T23:02:18.740Z,100784.94
2022-10-21T23:04:45.287Z,100779.44
2022-10-21T23:07:11.802Z,100780.25
2022-10-21T23:09:38.311Z,100773.97
2022-10-21T23:12:05.064Z,100779.19
2022-10-21T23:14:31.563Z,100784.66
2022-10-21T23:16:58.068Z,100789.06
2022-10-21T23:19:24.613Z,100781.06
2022-10-21T23:21:51.996Z,100794.28
2022-10-21T23:24:20.422Z,100787.72
2022-10-21T23:26:46.970Z,100804.16
2022-10-21T23:29:13.699Z,100791.53
2022-10-21T23:31:40.370Z,100797.03
2022-10-21T23:34:06.920Z,100795.94
2022-10-21T23:36:35.543Z,100784.97
2022-10-21T23:39:02.564Z,100797.56
2022-10-21T23:41:29.162Z,100795.66
2022-10-21T23:43:55.752Z,100792.94
2022-10-21T23:46:22.496Z,100798.16
2022-10-21T23:48:49.214Z,100808.31
2022-10-21T23:51:15.850Z,100798.16
2022-10-21T23:53:42.351Z,100798.97
2022-10-21T23:56:08.909Z,100797.31
2022-10-21T23:58:35.457Z,100783.63
